Time;durP1;ratioP1;P1;durP2;ratioP2;P2;SDS_P1;SDS_P2;PMS_P1;PMS_P2;Temp;Humidity;BMP_temperature;BMP_pressure;BME280_temperature;BME280_humidity;BME280_pressure;Samples;Min_cycle;Max_cycle;Signal;HPM_P1;HPM_P2
2022/07/07 00:01:11;;;;;;;6.57;3.20;;;;;;;12.58;90.46;98048.06;6235890;28;20644;-43
2022/07/07 00:04:13;;;;;;;3.27;3.07;;;;;;;12.55;90.41;98048.34;6228522;28;20239;-43
2022/07/07 00:07:16;;;;;;;3.07;2.87;;;;;;;12.51;90.91;98048.72;6231291;28;20242;-43
2022/07/07 00:10:18;;;;;;;5.47;3.30;;;;;;;12.48;90.60;98044.50;6229320;28;20235;-44
2022/07/07 00:13:20;;;;;;;4.53;3.40;;;;;;;12.45;91.01;98047.41;6231125;28;20256;-44
2022/07/07 00:16:23;;;;;;;3.80;3.13;;;;;;;12.41;91.02;98040.69;6213941;28;20774;-43
2022/07/07 00:19:26;;;;;;;3.30;3.00;;;;;;;12.33;90.87;98037.84;6230515;28;20706;-44
2022/07/07 00:22:28;;;;;;;7.23;3.47;;;;;;;12.27;91.12;98033.06;6230911;28;20242;-43
2022/07/07 00:25:31;;;;;;;5.43;3.30;;;;;;;12.20;91.68;98019.47;6231670;28;20231;-43
2022/07/07 00:28:33;;;;;;;3.80;3.50;;;;;;;12.17;91.86;98026.81;6230535;28;20237;-44
2022/07/07 00:31:35;;;;;;;6.20;3.40;;;;;;;12.14;91.96;98024.41;6231187;28;20243;-48
2022/07/07 00:34:38;;;;;;;3.23;2.93;;;;;;;12.15;91.84;98020.81;6230861;28;20235;-44
2022/07/07 00:37:40;;;;;;;5.63;3.73;;;;;;;12.17;91.89;98019.72;6229896;28;20237;-45
2022/07/07 00:40:42;;;;;;;4.33;3.90;;;;;;;12.24;92.28;98012.13;6230004;28;20322;-45
2022/07/07 00:43:44;;;;;;;3.33;3.03;;;;;;;12.28;91.98;98010.88;6230533;28;20239;-46
2022/07/07 00:46:49;;;;;;;3.93;3.53;;;;;;;12.26;91.62;98009.34;6230066;28;20232;-45
2022/07/07 00:49:53;;;;;;;3.83;3.53;;;;;;;12.17;91.89;98009.16;6229458;28;20398;-46
2022/07/07 00:52:55;;;;;;;3.27;3.00;;;;;;;12.13;91.76;98014.78;6230474;28;20242;-46
2022/07/07 00:55:57;;;;;;;3.30;3.00;;;;;;;12.13;91.61;98012.16;6230449;28;20252;-45
2022/07/07 00:59:06;;;;;;;3.93;3.53;;;;;;;12.12;91.80;98008.66;6229571;28;20235;-43
2022/07/07 01:02:08;;;;;;;3.90;3.60;;;;;;;12.08;91.53;98006.38;6229676;28;20238;-43
2022/07/07 01:05:11;;;;;;;3.83;3.43;;;;;;;12.05;91.69;98004.84;6185500;28;20231;-44
2022/07/07 01:08:17;;;;;;;3.30;3.10;;;;;;;12.00;91.47;98006.16;6229235;28;20658;-47
2022/07/07 01:11:19;;;;;;;4.00;3.60;;;;;;;11.95;91.84;98011.84;6229348;28;20224;-44
2022/07/07 01:14:22;;;;;;;5.10;3.73;;;;;;;11.95;92.13;98005.72;6229191;28;20603;-43
2022/07/07 01:17:25;;;;;;;3.73;3.43;;;;;;;11.96;92.22;97996.81;6229527;28;20238;-44
2022/07/07 01:20:27;;;;;;;4.03;3.73;;;;;;;11.96;91.90;98002.94;6229226;28;20246;-45
2022/07/07 01:23:29;;;;;;;3.87;3.53;;;;;;;11.97;92.03;97996.69;6229414;28;20235;-45
2022/07/07 01:26:31;;;;;;;3.70;3.40;;;;;;;12.01;92.07;97997.25;6212344;28;20228;-43
2022/07/07 01:29:40;;;;;;;4.60;4.20;;;;;;;12.05;92.32;97996.06;6227979;28;20231;-43
2022/07/07 01:32:42;;;;;;;6.47;3.80;;;;;;;12.10;91.98;97992.06;6229286;28;20228;-43
2022/07/07 01:35:45;;;;;;;3.83;3.40;;;;;;;12.10;91.96;97989.41;6229769;28;20239;-43
2022/07/07 01:38:47;;;;;;;6.07;3.40;;;;;;;12.12;92.24;97990.13;6227227;28;20234;-43
2022/07/07 01:41:49;;;;;;;3.80;3.30;;;;;;;12.12;91.87;97989.31;6228695;28;20737;-43
2022/07/07 01:44:51;;;;;;;3.37;3.03;;;;;;;12.10;92.09;97986.78;6229096;28;20600;-43
2022/07/07 01:47:53;;;;;;;3.77;3.47;;;;;;;12.08;92.01;97982.56;6229715;28;20298;-43
2022/07/07 01:50:55;;;;;;;3.50;3.30;;;;;;;12.06;91.94;97990.66;6228409;28;20239;-45
2022/07/07 01:53:57;;;;;;;3.63;3.43;;;;;;;12.02;91.95;97980.44;6229230;28;20243;-43
2022/07/07 01:57:00;;;;;;;3.40;3.10;;;;;;;12.01;91.91;97981.41;6211627;28;20240;-43
2022/07/07 02:00:03;;;;;;;3.80;3.50;;;;;;;12.01;91.92;97979.59;6227891;28;20237;-42
2022/07/07 02:03:05;;;;;;;4.00;3.57;;;;;;;12.01;92.05;97976.09;6228878;28;20659;-44
2022/07/07 02:06:07;;;;;;;3.90;3.47;;;;;;;12.03;91.94;97982.13;6228863;28;20226;-43
2022/07/07 02:09:10;;;;;;;3.50;3.20;;;;;;;12.06;91.97;97980.06;6227824;28;20249;-44
2022/07/07 02:12:12;;;;;;;3.63;3.10;;;;;;;12.12;92.13;97982.19;6210625;28;20212;-43
2022/07/07 02:15:14;;;;;;;3.83;3.50;;;;;;;12.19;91.70;97978.09;6211074;28;20201;-44
2022/07/07 02:18:16;;;;;;;3.30;3.10;;;;;;;12.24;91.53;97975.06;6228384;28;20236;-44
2022/07/07 02:21:20;;;;;;;3.47;3.17;;;;;;;12.26;91.36;97981.09;6212736;28;20626;-44
2022/07/07 02:24:22;;;;;;;3.70;3.40;;;;;;;12.31;91.59;97981.53;6232806;28;20226;-46
2022/07/07 02:27:24;;;;;;;4.20;3.80;;;;;;;12.35;91.36;97988.25;6233403;28;20710;-45
2022/07/07 02:30:27;;;;;;;4.50;3.37;;;;;;;12.43;91.65;97992.91;6232306;28;20236;-46
2022/07/07 02:33:29;;;;;;;3.50;3.20;;;;;;;12.50;91.34;97992.28;6233820;28;20603;-43
2022/07/07 02:36:31;;;;;;;4.37;3.50;;;;;;;12.54;91.29;97996.34;6234139;28;20237;-46
2022/07/07 02:39:33;;;;;;;3.10;2.90;;;;;;;12.54;91.34;97987.56;6234138;28;20742;-45
2022/07/07 02:42:35;;;;;;;3.30;3.10;;;;;;;12.56;91.79;97983.00;6236238;28;20607;-44
2022/07/07 02:45:38;;;;;;;3.70;3.40;;;;;;;12.60;91.51;97981.75;6235945;28;20234;-45
2022/07/07 02:48:41;;;;;;;3.70;3.40;;;;;;;12.60;91.75;97983.56;6232277;28;20262;-46
2022/07/07 02:51:43;;;;;;;3.87;3.57;;;;;;;12.63;91.65;97983.31;6233060;28;20381;-43
2022/07/07 02:54:45;;;;;;;3.27;3.00;;;;;;;12.68;91.62;97981.09;6232615;28;20231;-43
2022/07/07 02:57:47;;;;;;;3.43;3.10;;;;;;;12.71;91.38;97980.84;6232343;28;20886;-42
2022/07/07 03:00:51;;;;;;;3.20;3.00;;;;;;;12.67;91.73;97975.00;6232228;28;20673;-44
2022/07/07 03:03:53;;;;;;;3.17;2.97;;;;;;;12.63;91.71;97972.72;6232226;28;20250;-44
2022/07/07 03:06:55;;;;;;;3.53;3.23;;;;;;;12.61;91.96;97969.34;6233413;28;20734;-44
2022/07/07 03:09:57;;;;;;;3.90;3.00;;;;;;;12.58;91.68;97973.09;6232027;28;20224;-43
2022/07/07 03:12:59;;;;;;;3.63;3.33;;;;;;;12.55;91.70;97974.22;6232535;28;20644;-44
2022/07/07 03:16:01;;;;;;;3.63;3.33;;;;;;;12.62;92.21;97971.88;6232443;28;20227;-46
2022/07/07 03:19:03;;;;;;;3.33;3.13;;;;;;;12.70;91.95;97969.41;6231628;28;20608;-45
2022/07/07 03:22:06;;;;;;;3.70;3.27;;;;;;;12.76;91.83;97968.94;6232601;28;20289;-42
2022/07/07 03:25:09;;;;;;;2.93;2.73;;;;;;;12.78;91.74;97977.56;6232342;28;20234;-44
2022/07/07 03:28:11;;;;;;;3.10;2.90;;;;;;;12.82;91.83;97975.50;6231317;28;20224;-43
2022/07/07 03:31:13;;;;;;;3.17;2.97;;;;;;;12.83;91.67;97975.38;6233257;28;20220;-44
2022/07/07 03:34:15;;;;;;;3.40;3.10;;;;;;;12.86;91.68;97975.13;6231980;28;20242;-44
2022/07/07 03:37:17;;;;;;;3.07;2.87;;;;;;;12.88;91.34;97972.31;6231946;28;20236;-48
2022/07/07 03:40:19;;;;;;;3.60;3.30;;;;;;;12.88;91.29;97974.97;6231013;28;20260;-43
2022/07/07 03:43:22;;;;;;;3.20;3.00;;;;;;;12.89;91.69;97979.28;6231910;28;20235;-44
2022/07/07 03:46:24;;;;;;;6.57;3.67;;;;;;;12.95;91.90;97962.91;6231201;28;20560;-43
2022/07/07 03:49:27;;;;;;;3.43;3.17;;;;;;;13.02;91.67;97973.81;6229694;28;20243;-43
2022/07/07 03:52:29;;;;;;;3.57;3.27;;;;;;;13.09;92.01;97975.78;6230077;28;20232;-45
2022/07/07 03:55:31;;;;;;;3.60;3.30;;;;;;;13.09;91.49;97970.50;6232212;28;20231;-43
2022/07/07 03:58:34;;;;;;;3.87;3.50;;;;;;;13.17;91.94;97961.94;6230625;28;20232;-45
2022/07/07 04:01:36;;;;;;;3.03;2.83;;;;;;;13.22;91.89;97965.00;6231081;28;20236;-44
2022/07/07 04:04:38;;;;;;;4.67;3.33;;;;;;;13.32;91.51;97962.41;6230934;28;20248;-42
2022/07/07 04:07:40;;;;;;;3.93;3.63;;;;;;;13.39;91.78;97961.72;6230453;28;20235;-44
2022/07/07 04:10:43;;;;;;;3.70;3.40;;;;;;;13.44;91.47;97961.34;6230086;28;20633;-44
2022/07/07 04:13:45;;;;;;;3.40;3.10;;;;;;;13.49;91.09;97964.41;6231124;28;20239;-43
2022/07/07 04:16:47;;;;;;;3.23;2.73;;;;;;;13.52;91.55;97962.34;6231247;28;20235;-43
2022/07/07 04:19:49;;;;;;;4.27;3.10;;;;;;;13.60;90.96;97964.31;6230180;28;20726;-45
2022/07/07 04:22:52;;;;;;;4.33;2.87;;;;;;;13.70;91.20;97961.69;6230886;28;20585;-44
2022/07/07 04:25:54;;;;;;;3.20;3.00;;;;;;;13.79;90.55;97961.72;6230260;28;20606;-46
2022/07/07 04:28:56;;;;;;;3.47;3.03;;;;;;;13.88;90.74;97960.88;6229797;28;20231;-43
2022/07/07 04:31:58;;;;;;;4.03;3.23;;;;;;;13.98;90.71;97968.88;6230539;28;20698;-43
2022/07/07 04:35:00;;;;;;;3.33;3.13;;;;;;;14.08;90.27;97961.75;6230505;28;20720;-43
2022/07/07 04:38:02;;;;;;;3.77;3.47;;;;;;;14.14;90.27;97966.53;6230419;28;20695;-45
2022/07/07 04:41:04;;;;;;;4.23;3.10;;;;;;;14.21;90.37;97962.34;6229608;28;20726;-46
2022/07/07 04:44:06;;;;;;;3.40;3.10;;;;;;;14.27;89.99;97963.63;6230285;28;20231;-44
2022/07/07 04:47:08;;;;;;;2.90;2.70;;;;;;;14.24;89.79;97964.72;6212822;28;20710;-45
2022/07/07 04:50:12;;;;;;;4.10;3.03;;;;;;;14.29;89.81;97970.44;6229229;28;20231;-43
2022/07/07 04:53:14;;;;;;;2.83;2.63;;;;;;;14.41;89.49;97968.53;6230665;28;20232;-45
2022/07/07 04:56:16;;;;;;;3.07;2.87;;;;;;;14.53;89.54;97970.06;6229873;28;20232;-44
2022/07/07 04:59:18;;;;;;;3.00;2.80;;;;;;;14.65;89.37;97965.44;6228284;28;20390;-46
2022/07/07 05:02:20;;;;;;;3.30;3.10;;;;;;;14.71;89.06;97963.06;6229361;28;20647;-46
2022/07/07 05:05:23;;;;;;;3.23;3.03;;;;;;;14.75;89.01;97963.63;6229966;28;20289;-44
2022/07/07 05:08:25;;;;;;;2.93;2.73;;;;;;;14.77;89.03;97959.81;6229828;28;20227;-47
2022/07/07 05:11:27;;;;;;;3.93;3.33;;;;;;;14.81;89.42;97954.22;6229068;28;20231;-43
2022/07/07 05:14:30;;;;;;;3.40;3.10;;;;;;;14.83;89.41;97968.22;6229431;28;20224;-43
2022/07/07 05:17:32;;;;;;;3.50;3.20;;;;;;;14.85;89.45;97958.28;6229143;28;20727;-44
2022/07/07 05:20:34;;;;;;;3.07;2.87;;;;;;;14.87;89.51;97958.97;6229110;28;20602;-43
2022/07/07 05:23:36;;;;;;;3.37;2.97;;;;;;;14.87;89.03;97958.97;6229926;28;20711;-45
2022/07/07 05:26:38;;;;;;;2.97;2.67;;;;;;;14.86;89.05;97968.78;6229297;28;20240;-46
2022/07/07 05:29:40;;;;;;;3.33;3.03;;;;;;;14.85;89.03;97969.75;6228568;28;20243;-44
2022/07/07 05:32:42;;;;;;;3.03;2.80;;;;;;;14.87;89.06;97967.78;6229414;28;20240;-43
2022/07/07 05:35:44;;;;;;;2.90;2.70;;;;;;;14.94;88.83;97970.72;6228674;28;20232;-44
2022/07/07 05:38:46;;;;;;;3.07;2.80;;;;;;;15.01;88.98;97975.31;6228151;28;20699;-44
2022/07/07 05:41:48;;;;;;;3.20;3.00;;;;;;;15.11;88.55;97969.97;6228675;28;20598;-48
2022/07/07 05:44:50;;;;;;;3.30;3.00;;;;;;;15.23;88.30;97971.47;6229136;28;20704;-47
2022/07/07 05:47:52;;;;;;;3.07;2.77;;;;;;;15.35;87.68;97975.63;6228627;28;20312;-44
2022/07/07 05:50:54;;;;;;;4.03;2.90;;;;;;;15.57;87.19;97968.28;6228546;28;20231;-44
2022/07/07 05:53:57;;;;;;;3.30;3.00;;;;;;;15.79;86.54;97970.53;6228511;28;20242;-44
2022/07/07 05:56:59;;;;;;;3.10;2.87;;;;;;;16.01;84.85;97962.16;6226796;28;20250;-43
2022/07/07 06:00:01;;;;;;;3.00;2.67;;;;;;;16.29;84.22;97970.91;6228179;28;20243;-46
2022/07/07 06:03:12;;;;;;;2.40;2.20;;;;;;;16.39;79.73;97969.00;6228996;28;20246;-45
2022/07/07 06:06:14;;;;;;;2.50;2.30;;;;;;;16.63;78.45;97970.25;6229024;28;20212;-46
2022/07/07 06:09:17;;;;;;;3.00;2.60;;;;;;;16.78;78.70;97964.22;6229630;28;20373;-46
2022/07/07 06:12:19;;;;;;;2.90;1.90;;;;;;;17.08;75.75;97967.41;6229401;28;20222;-47
2022/07/07 06:15:21;;;;;;;3.30;2.20;;;;;;;17.35;75.64;97967.28;6210853;28;20316;-44
2022/07/07 06:18:23;;;;;;;2.80;2.10;;;;;;;17.52;73.16;97958.34;6226730;28;20223;-45
2022/07/07 06:21:26;;;;;;;6.53;2.10;;;;;;;17.69;73.84;97970.78;6227517;28;20232;-48
2022/07/07 06:24:28;;;;;;;2.40;2.00;;;;;;;17.82;73.72;97965.00;6230764;28;20628;-45
2022/07/07 06:27:30;;;;;;;3.93;2.00;;;;;;;18.06;73.48;97970.44;6230079;28;20230;-44
2022/07/07 06:30:32;;;;;;;1.70;1.47;;;;;;;18.25;67.51;97976.47;6227717;28;20588;-47
2022/07/07 06:33:35;;;;;;;2.90;1.83;;;;;;;18.39;65.87;97970.47;6227644;28;20666;-44
2022/07/07 06:36:37;;;;;;;3.23;1.73;;;;;;;18.55;65.53;97977.69;6227736;28;20231;-47
2022/07/07 06:39:39;;;;;;;1.73;1.63;;;;;;;18.75;63.70;97969.22;6227314;28;20227;-45
2022/07/07 06:42:41;;;;;;;3.33;1.80;;;;;;;18.94;63.42;97972.53;6227699;28;20317;-47
2022/07/07 06:45:47;;;;;;;4.77;1.43;;;;;;;19.12;61.32;97967.84;6228011;28;20231;-48
2022/07/07 06:48:50;;;;;;;2.47;1.60;;;;;;;19.34;60.12;97964.44;6227039;28;20242;-47
2022/07/07 06:51:52;;;;;;;1.63;1.53;;;;;;;19.43;59.52;97962.56;6227624;28;20600;-49
2022/07/07 06:54:55;;;;;;;2.40;1.60;;;;;;;19.49;61.89;97972.63;6228559;28;20219;-47
2022/07/07 06:57:57;;;;;;;1.73;1.63;;;;;;;19.50;59.76;97966.25;6226937;28;20223;-47
2022/07/07 07:00:59;;;;;;;2.00;1.80;;;;;;;19.41;59.45;97965.41;6227609;28;20615;-44
2022/07/07 07:04:01;;;;;;;1.77;1.53;;;;;;;19.50;57.50;97963.59;6202343;28;20608;-43
2022/07/07 07:07:04;;;;;;;2.00;1.30;;;;;;;19.93;56.55;97961.41;6204342;28;20236;-44
2022/07/07 07:10:07;;;;;;;1.67;1.57;;;;;;;20.20;55.77;97951.03;6206398;28;20237;-45
2022/07/07 07:13:09;;;;;;;1.83;1.30;;;;;;;20.38;53.21;97952.63;6208408;28;20263;-46
2022/07/07 07:16:11;;;;;;;2.73;1.60;;;;;;;20.56;53.55;97945.13;6208013;28;20228;-43
2022/07/07 07:19:14;;;;;;;3.20;1.47;;;;;;;20.52;52.04;97947.31;6205761;28;20221;-43
2022/07/07 07:22:17;;;;;;;2.13;1.40;;;;;;;20.97;50.98;97943.75;6207531;28;20240;-46
2022/07/07 07:25:20;;;;;;;3.03;1.20;;;;;;;21.36;49.89;97958.84;6208334;28;20224;-44
2022/07/07 07:28:23;;;;;;;2.03;1.27;;;;;;;21.54;48.18;97945.88;6207518;28;20275;-46
2022/07/07 07:31:25;;;;;;;1.43;1.30;;;;;;;21.72;45.88;97943.63;6206760;28;20236;-44
2022/07/07 07:34:27;;;;;;;1.50;1.17;;;;;;;22.03;45.71;97937.22;6208736;28;20327;-43
2022/07/07 07:37:29;;;;;;;3.67;1.20;;;;;;;22.52;45.13;97944.56;6197926;28;20245;-45
2022/07/07 07:40:31;;;;;;;1.40;1.30;;;;;;;22.85;46.14;97942.22;6196851;28;20229;-46
2022/07/07 07:43:34;;;;;;;1.77;1.30;;;;;;;23.06;43.60;97942.16;6208565;28;20243;-49
2022/07/07 07:46:42;;;;;;;2.33;1.00;;;;;;;23.35;43.56;97954.63;6206708;28;20233;-44
2022/07/07 07:49:46;;;;;;;3.37;1.27;;;;;;;23.49;43.43;97943.75;6206012;28;20272;-47
2022/07/07 07:52:49;;;;;;;1.90;1.30;;;;;;;23.75;44.60;97936.84;6206808;28;20228;-46
2022/07/07 07:55:53;;;;;;;1.13;1.03;;;;;;;23.95;44.65;97936.94;6207323;28;20266;-48
2022/07/07 07:58:55;;;;;;;3.40;1.53;;;;;;;23.28;40.58;97945.63;6206491;28;20875;-45
2022/07/07 08:01:57;;;;;;;2.33;1.37;;;;;;;22.68;41.30;97949.69;6205955;28;20232;-46
2022/07/07 08:04:59;;;;;;;2.53;1.60;;;;;;;22.57;43.08;97945.66;6226578;28;20227;-45
2022/07/07 08:08:02;;;;;;;1.00;1.00;;;;;;;22.86;42.14;97943.88;6230306;28;20235;-45
2022/07/07 08:11:04;;;;;;;1.73;1.20;;;;;;;23.27;43.48;97936.72;6230035;28;20247;-47
2022/07/07 08:14:06;;;;;;;2.67;1.30;;;;;;;23.70;44.16;97947.38;6231339;28;20460;-46
2022/07/07 08:17:08;;;;;;;2.87;1.10;;;;;;;24.09;43.22;97935.94;6230500;28;20228;-45
2022/07/07 08:20:11;;;;;;;2.77;1.30;;;;;;;24.63;43.63;97934.03;6229431;28;20738;-46
2022/07/07 08:23:13;;;;;;;2.27;1.40;;;;;;;25.07;41.91;97943.41;6230362;28;20699;-51
2022/07/07 08:26:15;;;;;;;2.30;1.30;;;;;;;24.93;37.98;97939.88;6230539;28;20234;-46
2022/07/07 08:29:17;;;;;;;3.10;1.10;;;;;;;25.33;38.60;97932.56;6229520;28;20243;-46
2022/07/07 08:32:20;;;;;;;2.10;1.20;;;;;;;26.07;38.33;97931.31;6230239;28;20227;-46
2022/07/07 08:35:22;;;;;;;3.77;1.20;;;;;;;26.06;39.37;97943.16;6231024;28;20227;-47
2022/07/07 08:38:25;;;;;;;1.53;1.20;;;;;;;25.36;38.93;97939.41;6230525;28;20227;-46
2022/07/07 08:41:27;;;;;;;2.85;1.42;;;;;;;24.74;41.75;97943.38;6229177;28;20227;-45
2022/07/07 08:44:30;;;;;;;2.15;1.38;;;;;;;24.39;42.12;97945.38;6230079;28;20697;-46
2022/07/07 08:47:32;;;;;;;1.87;1.33;;;;;;;24.21;41.58;97951.34;6228513;28;20699;-45
2022/07/07 08:50:40;;;;;;;1.50;1.23;;;;;;;23.97;42.04;97968.03;6212088;28;20243;-47
2022/07/07 08:53:48;;;;;;;1.63;1.53;;;;;;;23.70;40.15;97958.16;6230494;28;20228;-48
2022/07/07 08:56:50;;;;;;;1.67;1.40;;;;;;;23.96;41.93;97952.06;6235351;28;20239;-47
2022/07/07 08:59:56;;;;;;;1.60;1.23;;;;;;;24.09;43.05;97960.19;6229318;28;20672;-46
2022/07/07 09:02:58;;;;;;;2.30;1.10;;;;;;;24.29;42.61;97969.22;6229602;28;20909;-47
2022/07/07 09:06:01;;;;;;;2.73;1.20;;;;;;;24.60;42.51;97964.13;6229524;28;20707;-44
2022/07/07 09:09:05;;;;;;;3.60;1.23;;;;;;;24.59;41.96;97962.44;6229575;28;20471;-47
2022/07/07 09:12:08;;;;;;;1.57;1.33;;;;;;;24.16;41.29;97964.56;6228213;28;20599;-46
2022/07/07 09:15:11;;;;;;;2.93;1.53;;;;;;;24.41;41.87;97954.09;6230003;28;20215;-46
2022/07/07 09:18:36;;;;;;;2.80;1.57;;;;;;;24.31;43.58;97952.84;6228172;28;20314;-46
2022/07/07 09:21:38;;;;;;;2.57;1.50;;;;;;;23.81;42.14;97971.91;6228483;28;20228;-49
2022/07/07 09:24:55;;;;;;;2.63;1.53;;;;;;;23.79;41.71;97990.13;6229434;28;20335;-46
2022/07/07 09:28:02;;;;;;;2.27;1.27;;;;;;;23.69;42.51;97986.97;6228248;28;20247;-47
2022/07/07 09:31:04;;;;;;;1.80;1.43;;;;;;;23.51;42.07;97989.34;6228169;28;20231;-48
2022/07/07 09:34:13;;;;;;;2.83;1.40;;;;;;;23.40;39.54;97988.00;6228953;28;20266;-48
2022/07/07 09:40:48;;;;;;;1.80;1.33;;;;;;;23.53;41.95;97981.91;6227635;28;20696;-49
2022/07/07 09:43:52;;;;;;;2.03;1.37;;;;;;;23.38;41.93;97973.88;6228621;28;20234;-47
2022/07/07 09:47:08;;;;;;;1.43;1.10;;;;;;;23.82;44.09;97973.56;6211331;28;20224;-48
2022/07/07 09:50:15;;;;;;;1.40;1.30;;;;;;;24.16;43.25;97978.06;6228356;28;20228;-46
2022/07/07 09:53:17;;;;;;;2.37;1.33;;;;;;;24.33;43.11;97964.25;6228672;28;20682;-48
2022/07/07 09:56:22;;;;;;;3.90;1.60;;;;;;;24.10;41.79;97967.25;6228679;28;20239;-46
2022/07/07 09:59:24;;;;;;;2.13;1.30;;;;;;;23.63;39.24;97968.91;6228146;28;20865;-47
2022/07/07 10:02:32;;;;;;;1.77;1.30;;;;;;;23.32;38.31;97969.31;6228260;28;20243;-46
2022/07/07 10:05:34;;;;;;;2.37;1.40;;;;;;;23.41;40.58;97973.50;6228164;28;20236;-46
2022/07/07 10:08:42;;;;;;;4.40;1.53;;;;;;;23.67;42.48;97978.25;6228136;28;20223;-46
2022/07/07 10:11:52;;;;;;;1.70;1.60;;;;;;;23.95;43.89;97977.38;6227674;28;20702;-46
2022/07/07 10:15:00;;;;;;;1.97;1.80;;;;;;;24.13;42.77;97981.19;6228553;28;20236;-48
2022/07/07 10:18:02;;;;;;;2.30;1.57;;;;;;;24.01;42.37;97976.56;6227922;28;20700;-47
2022/07/07 10:21:05;;;;;;;2.40;1.53;;;;;;;23.75;41.25;97975.41;6227678;28;20305;-47
2022/07/07 10:24:08;;;;;;;2.27;1.47;;;;;;;23.80;41.35;97990.97;6228360;28;20227;-52
2022/07/07 10:27:15;;;;;;;2.67;1.33;;;;;;;24.01;42.27;97979.25;6227958;28;20664;-46
2022/07/07 10:30:35;;;;;;;2.20;1.33;;;;;;;23.78;39.98;97993.88;6227270;28;20243;-50
2022/07/07 10:33:37;;;;;;;1.73;1.23;;;;;;;23.97;41.84;97986.06;6228283;28;20703;-48
2022/07/07 10:36:45;;;;;;;1.93;1.47;;;;;;;24.21;42.89;97991.81;6210527;28;20298;-50
2022/07/07 10:39:51;;;;;;;1.87;1.20;;;;;;;24.23;42.27;97994.31;6227644;28;20250;-49
2022/07/07 10:43:10;;;;;;;2.90;1.90;;;;;;;23.82;39.66;97994.31;6227910;28;20797;-48
2022/07/07 10:46:12;;;;;;;4.83;1.60;;;;;;;23.50;40.09;97993.06;6232966;28;20624;-50
2022/07/07 10:49:14;;;;;;;2.93;1.70;;;;;;;23.44;41.26;97991.97;6231819;28;20281;-47
2022/07/07 10:52:40;;;;;;;1.43;1.33;;;;;;;23.75;42.03;97996.97;6232267;28;20242;-49
2022/07/07 10:56:02;;;;;;;2.03;1.53;;;;;;;24.11;42.50;97996.72;6232196;28;20224;-49
2022/07/07 10:59:10;;;;;;;2.87;1.47;;;;;;;24.30;42.05;97994.34;6232537;28;20255;-47
2022/07/07 11:02:35;;;;;;;3.27;1.33;;;;;;;23.91;41.85;97990.41;6230940;28;20244;-50
2022/07/07 11:05:42;;;;;;;2.57;1.50;;;;;;;23.84;41.88;97995.78;6233716;28;20236;-50
2022/07/07 11:08:58;;;;;;;5.30;1.50;;;;;;;24.05;40.90;97994.84;6232279;28;20240;-48
2022/07/07 11:12:38;;;;;;;3.07;1.60;;;;;;;23.64;40.83;98002.09;6232174;28;20247;-47
2022/07/07 11:15:40;;;;;;;3.47;1.70;;;;;;;23.16;40.14;97999.19;6207321;28;20225;-51
2022/07/07 11:18:46;;;;;;;1.57;1.47;;;;;;;23.37;41.55;98001.84;6229952;28;20586;-47
2022/07/07 11:21:48;;;;;;;2.67;1.40;;;;;;;23.16;40.61;98015.34;6231215;28;20611;-51
2022/07/07 11:24:50;;;;;;;2.60;1.10;;;;;;;22.63;40.79;98014.84;6233902;28;20719;-49
2022/07/07 11:27:56;;;;;;;2.87;1.33;;;;;;;22.68;41.99;98012.41;6213840;28;20235;-48
2022/07/07 11:31:04;;;;;;;1.93;1.30;;;;;;;22.60;43.85;98031.38;6214246;28;20609;-50
2022/07/07 11:34:06;;;;;;;2.03;1.10;;;;;;;22.20;42.47;98018.47;6232060;28;20243;-47
2022/07/07 11:37:26;;;;;;;0.97;0.67;;;;;;;21.57;41.05;98023.38;6231650;28;20326;-51
2022/07/07 11:40:29;;;;;;;1.40;0.73;;;;;;;21.39;42.03;98020.22;6231212;28;20715;-48
2022/07/07 11:43:31;;;;;;;0.57;0.57;;;;;;;21.15;46.17;98032.00;6231483;28;20236;-48
2022/07/07 11:46:34;;;;;;;3.07;1.20;;;;;;;21.04;45.69;98035.13;6231515;28;20267;-51
2022/07/07 11:49:37;;;;;;;1.33;0.87;;;;;;;20.84;46.11;98025.88;6230281;28;20231;-49
2022/07/07 11:52:53;;;;;;;1.63;1.03;;;;;;;20.72;44.58;98028.16;6231456;28;20603;-50
2022/07/07 11:55:56;;;;;;;1.10;0.90;;;;;;;20.76;46.09;98020.59;6229864;28;20232;-49
2022/07/07 11:58:59;;;;;;;3.60;1.17;;;;;;;20.93;45.18;98014.91;6230723;28;20220;-49
2022/07/07 12:02:19;;;;;;;0.80;0.80;;;;;;;20.86;44.98;98007.78;6232229;28;20681;-45
2022/07/07 12:05:28;;;;;;;1.00;0.90;;;;;;;20.66;45.77;98009.25;6231371;28;20228;-47
2022/07/07 12:08:33;;;;;;;2.03;1.00;;;;;;;20.53;46.40;98009.84;6229120;28;20536;-45
2022/07/07 12:11:39;;;;;;;1.73;1.20;;;;;;;20.51;46.75;97996.59;6230197;28;20536;-46
2022/07/07 12:14:43;;;;;;;1.10;1.00;;;;;;;20.55;47.47;97995.25;6230356;28;20224;-48
2022/07/07 12:17:45;;;;;;;1.77;1.20;;;;;;;20.47;48.41;97992.59;6229799;28;20232;-45
2022/07/07 12:20:59;;;;;;;1.33;1.23;;;;;;;20.05;49.69;97990.31;6230382;28;20231;-47
2022/07/07 12:24:03;;;;;;;1.90;1.20;;;;;;;19.71;51.39;97987.94;6229489;28;20655;-46
2022/07/07 12:27:17;;;;;;;2.87;1.30;;;;;;;19.69;53.48;97978.41;6230516;28;20577;-45
2022/07/07 12:30:19;;;;;;;1.47;1.30;;;;;;;19.63;55.09;97974.59;6231161;28;20721;-46
2022/07/07 12:33:39;;;;;;;2.47;1.40;;;;;;;19.18;56.13;97985.88;6229656;28;20227;-46
2022/07/07 12:36:43;;;;;;;2.50;1.70;;;;;;;18.86;57.98;97983.25;6212098;28;20238;-46
2022/07/07 12:39:52;;;;;;;2.87;1.80;;;;;;;18.88;58.30;97986.56;6234363;28;20254;-46
2022/07/07 12:42:56;;;;;;;1.83;1.73;;;;;;;18.68;58.24;97991.41;6233861;28;20258;-45
2022/07/07 12:46:08;;;;;;;1.93;1.73;;;;;;;18.45;58.73;97980.53;6230267;28;20220;-46
2022/07/07 12:49:11;;;;;;;2.30;1.77;;;;;;;18.31;59.66;97975.81;6229698;28;20234;-46
2022/07/07 12:52:22;;;;;;;2.50;1.87;;;;;;;18.35;59.55;97967.31;6229121;28;20235;-47
2022/07/07 12:55:38;;;;;;;3.27;1.97;;;;;;;18.46;60.76;97973.34;6230052;28;20235;-45
2022/07/07 12:58:42;;;;;;;3.90;2.27;;;;;;;18.49;60.50;97968.47;6229413;28;20695;-46
2022/07/07 13:01:52;;;;;;;3.70;2.07;;;;;;;18.45;60.41;97972.50;6229112;28;20242;-46
2022/07/07 13:04:54;;;;;;;2.43;2.13;;;;;;;18.56;60.33;97974.03;6228043;28;20310;-48
2022/07/07 13:07:57;;;;;;;2.63;2.30;;;;;;;18.59;59.80;97973.69;6228700;28;20231;-46
2022/07/07 13:10:59;;;;;;;4.00;2.00;;;;;;;18.56;59.45;97961.50;6229471;28;20646;-46
2022/07/07 13:14:01;;;;;;;3.17;2.33;;;;;;;18.84;59.50;97958.50;6231406;28;20232;-48
2022/07/07 13:17:24;;;;;;;4.67;3.27;;;;;;;19.24;58.24;97954.94;6228828;28;20224;-49
2022/07/07 13:20:26;;;;;;;3.20;2.80;;;;;;;19.65;56.74;97951.16;6209777;28;20692;-47
2022/07/07 13:23:29;;;;;;;6.37;4.20;;;;;;;20.11;56.07;97943.22;6228748;28;20267;-48
2022/07/07 13:26:32;;;;;;;5.43;3.23;;;;;;;20.69;55.95;97937.28;6228747;28;20227;-47
2022/07/07 13:29:34;;;;;;;2.70;2.47;;;;;;;21.16;54.49;97941.56;6227778;28;20232;-47
2022/07/07 13:32:36;;;;;;;4.30;2.27;;;;;;;21.60;52.34;97950.50;6228288;28;20234;-46
2022/07/07 13:35:38;;;;;;;3.63;2.30;;;;;;;21.39;51.59;97942.34;6229060;28;20247;-47
2022/07/07 13:38:40;;;;;;;1.83;1.73;;;;;;;21.33;51.09;97935.88;6228554;28;20231;-49
2022/07/07 13:41:42;;;;;;;4.23;2.13;;;;;;;21.40;50.80;97937.81;6227998;28;20220;-47
2022/07/07 13:45:05;;;;;;;2.97;2.00;;;;;;;21.34;50.85;97950.13;6228169;28;20228;-48
2022/07/07 13:48:08;;;;;;;4.57;2.17;;;;;;;21.26;50.65;97958.28;6227967;28;20625;-46
2022/07/07 13:51:10;;;;;;;2.93;1.87;;;;;;;21.58;50.85;97955.22;6228556;28;20266;-46
2022/07/07 13:54:30;;;;;;;3.40;1.90;;;;;;;21.89;49.75;97940.72;6228684;28;20231;-47
2022/07/07 13:57:33;;;;;;;1.97;1.57;;;;;;;23.18;46.92;97948.69;6230741;28;20224;-46
2022/07/07 14:00:35;;;;;;;2.50;1.60;;;;;;;23.92;43.20;97957.88;6233120;28;20236;-47
2022/07/07 14:03:37;;;;;;;5.47;1.80;;;;;;;24.79;41.15;97938.19;6228547;28;20251;-46
2022/07/07 14:06:39;;;;;;;1.97;1.33;;;;;;;25.50;40.17;97949.16;6229724;28;20231;-47
2022/07/07 14:09:41;;;;;;;12.27;7.27;;;;;;;25.85;40.51;97957.84;6227973;28;20228;-49
2022/07/07 14:12:44;;;;;;;2.30;1.10;;;;;;;26.50;38.61;97946.94;6231152;28;20711;-48
2022/07/07 14:15:46;;;;;;;1.60;1.20;;;;;;;26.66;37.29;97954.53;6229357;28;20238;-47
2022/07/07 14:18:48;;;;;;;1.67;1.10;;;;;;;26.79;36.69;97965.28;6230490;28;20230;-48
2022/07/07 14:21:50;;;;;;;1.53;1.07;;;;;;;25.87;39.21;97944.91;6216435;28;20235;-52
2022/07/07 14:24:53;;;;;;;3.23;2.40;;;;;;;26.34;38.27;97957.25;6215827;28;20310;-49
2022/07/07 14:27:55;;;;;;;1.53;1.30;;;;;;;27.17;35.57;97943.53;6234055;28;20233;-46
2022/07/07 14:30:57;;;;;;;3.10;1.57;;;;;;;27.28;35.13;97950.94;6231672;28;20226;-47